Time;durP1;ratioP1;P1;durP2;ratioP2;P2;SDS_P1;SDS_P2;PMS_P1;PMS_P2;Temp;Humidity;BMP_temperature;BMP_pressure;BME280_temperature;BME280_humidity;BME280_pressure;Samples;Min_cycle;Max_cycle;Signal;HPM_P1;HPM_P2
2022/03/03 00:02:17;;;;;;;;;;;1.00;37.30;;;;;;5068158;28;19920;-80
2022/03/03 00:04:43;;;;;;;;;;;1.00;38.00;;;;;;5052924;28;20348;-84
2022/03/03 00:07:08;;;;;;;;;;;1.00;37.30;;;;;;5053940;28;19924;-79
2022/03/03 00:09:34;;;;;;;;;;;1.00;37.40;;;;;;5051121;28;19921;-84
2022/03/03 00:12:00;;;;;;;;;;;1.00;37.50;;;;;;5042979;28;20331;-83
2022/03/03 00:14:26;;;;;;;;;;;1.00;37.50;;;;;;5060431;28;19916;-79
2022/03/03 00:16:52;;;;;;;;;;;1.00;37.50;;;;;;5068622;28;19924;-79
2022/03/03 00:19:18;;;;;;;;;;;1.00;37.70;;;;;;5070875;28;20373;-84
2022/03/03 00:21:44;;;;;;;;;;;0.90;37.80;;;;;;5062976;28;19927;-79
2022/03/03 00:24:10;;;;;;;;;;;0.90;37.90;;;;;;5054407;28;19953;-84
2022/03/03 00:26:36;;;;;;;;;;;0.80;37.90;;;;;;5033893;28;19921;-84
2022/03/03 00:29:02;;;;;;;;;;;0.80;38.00;;;;;;5068288;28;19916;-80
2022/03/03 00:31:28;;;;;;;;;;;0.70;37.90;;;;;;5068222;28;19921;-83
2022/03/03 00:33:54;;;;;;;;;;;0.70;38.20;;;;;;5052788;28;20278;-83
2022/03/03 00:36:20;;;;;;;;;;;0.60;38.20;;;;;;5067603;28;19927;-84
2022/03/03 00:38:48;;;;;;;;;;;0.60;38.30;;;;;;5068515;28;19917;-84
2022/03/03 00:41:14;;;;;;;;;;;0.60;38.30;;;;;;5067974;28;19923;-83
2022/03/03 00:43:40;;;;;;;;;;;0.50;38.30;;;;;;5052904;28;20362;-84
2022/03/03 00:46:06;;;;;;;;;;;0.50;38.20;;;;;;5067187;28;20278;-84
2022/03/03 00:48:32;;;;;;;;;;;0.50;38.80;;;;;;5053643;28;19931;-79
2022/03/03 00:51:00;;;;;;;;;;;0.50;38.80;;;;;;5052038;28;19927;-79
2022/03/03 00:53:26;;;;;;;;;;;0.50;38.70;;;;;;5046896;28;19995;-83
2022/03/03 00:55:52;;;;;;;;;;;0.40;38.20;;;;;;5056803;28;19921;-79
2022/03/03 00:58:18;;;;;;;;;;;0.50;38.80;;;;;;5044947;28;19920;-83
2022/03/03 01:00:44;;;;;;;;;;;0.40;38.80;;;;;;5052045;28;19920;-83
2022/03/03 01:03:10;;;;;;;;;;;0.40;39.00;;;;;;5054621;28;19920;-79
2022/03/03 01:05:35;;;;;;;;;;;0.30;39.00;;;;;;5047907;28;19921;-80
2022/03/03 01:08:02;;;;;;;;;;;0.30;39.00;;;;;;5056001;28;19924;-83
2022/03/03 01:10:29;;;;;;;;;;;0.30;39.00;;;;;;5059131;28;19982;-83
2022/03/03 01:12:55;;;;;;;;;;;0.20;38.60;;;;;;5067394;28;20258;-83
2022/03/03 01:15:21;;;;;;;;;;;0.20;39.50;;;;;;5054296;28;19921;-83
2022/03/03 01:17:47;;;;;;;;;;;0.10;39.50;;;;;;5056091;28;19921;-83
2022/03/03 01:20:13;;;;;;;;;;;0.10;39.50;;;;;;5037205;28;19917;-79
2022/03/03 01:22:39;;;;;;;;;;;0.00;39.50;;;;;;5054727;28;20192;-83
2022/03/03 01:25:05;;;;;;;;;;;-0.10;39.00;;;;;;5070333;28;19920;-79
2022/03/03 01:27:32;;;;;;;;;;;-0.10;39.40;;;;;;5054622;28;20377;-83
2022/03/03 01:29:58;;;;;;;;;;;-0.10;39.60;;;;;;5053701;28;20007;-83
2022/03/03 01:32:24;;;;;;;;;;;-0.10;39.70;;;;;;5054366;28;19944;-79
2022/03/03 01:34:50;;;;;;;;;;;-0.10;39.90;;;;;;5056218;28;19913;-83
2022/03/03 01:37:16;;;;;;;;;;;-0.20;40.00;;;;;;5054111;28;20363;-79
2022/03/03 01:39:42;;;;;;;;;;;-0.20;39.90;;;;;;5036464;28;19921;-80
2022/03/03 01:42:08;;;;;;;;;;;-0.20;40.00;;;;;;5053736;28;19943;-83
2022/03/03 01:44:34;;;;;;;;;;;-0.20;39.90;;;;;;5054578;28;20290;-79
2022/03/03 01:47:00;;;;;;;;;;;-0.20;39.90;;;;;;5065511;28;19979;-84
2022/03/03 01:49:26;;;;;;;;;;;-0.20;39.90;;;;;;5062345;28;19917;-81
2022/03/03 01:51:53;;;;;;;;;;;-0.30;39.50;;;;;;5061341;28;19927;-79
2022/03/03 01:54:19;;;;;;;;;;;-0.30;40.00;;;;;;5063827;28;19927;-79
2022/03/03 01:56:46;;;;;;;;;;;-0.40;40.20;;;;;;5059459;28;19920;-83
2022/03/03 01:59:13;;;;;;;;;;;-0.50;40.50;;;;;;5067205;28;20381;-79
2022/03/03 02:01:40;;;;;;;;;;;-0.70;40.80;;;;;;5041764;28;20325;-79
2022/03/03 02:04:08;;;;;;;;;;;-0.70;41.10;;;;;;5037160;28;19943;-83
2022/03/03 02:06:35;;;;;;;;;;;-0.70;41.10;;;;;;5053439;28;19928;-83
2022/03/03 02:09:01;;;;;;;;;;;-0.70;41.00;;;;;;5054501;28;19920;-79
2022/03/03 02:11:27;;;;;;;;;;;-0.70;41.10;;;;;;5037109;28;20247;-83
2022/03/03 02:13:53;;;;;;;;;;;-0.80;41.00;;;;;;5053663;28;19936;-83
2022/03/03 02:16:19;;;;;;;;;;;-0.70;41.30;;;;;;5070785;28;20362;-83
2022/03/03 02:18:45;;;;;;;;;;;-0.70;41.20;;;;;;5054673;28;19927;-78
2022/03/03 02:21:30;;;;;;;;;;;-0.70;41.10;;;;;;5070056;28;19927;-84
2022/03/03 02:23:56;;;;;;;;;;;-0.80;40.90;;;;;;5053222;28;19969;-83
2022/03/03 02:26:23;;;;;;;;;;;-0.80;40.50;;;;;;5053119;28;19927;-83
2022/03/03 02:28:51;;;;;;;;;;;-0.80;41.00;;;;;;5055294;28;19958;-84
2022/03/03 02:31:19;;;;;;;;;;;-0.80;41.00;;;;;;5054224;28;20324;-78
2022/03/03 02:33:45;;;;;;;;;;;-0.90;41.10;;;;;;5069160;28;19920;-83
2022/03/03 02:36:30;;;;;;;;;;;-0.90;41.30;;;;;;5056345;28;19921;-78
2022/03/03 02:38:58;;;;;;;;;;;-0.90;41.40;;;;;;5054275;28;19963;-83
2022/03/03 02:41:25;;;;;;;;;;;-1.00;41.40;;;;;;5051559;28;20382;-79
2022/03/03 02:43:51;;;;;;;;;;;-1.00;41.40;;;;;;5057053;28;20333;-80
2022/03/03 02:46:18;;;;;;;;;;;-1.00;41.10;;;;;;5062210;28;19920;-79
2022/03/03 02:48:44;;;;;;;;;;;-1.00;41.60;;;;;;5069764;28;19926;-79
2022/03/03 02:51:10;;;;;;;;;;;-1.00;41.70;;;;;;5059202;28;19921;-79
2022/03/03 02:53:36;;;;;;;;;;;-1.00;41.80;;;;;;5059761;28;20288;-78
2022/03/03 02:56:03;;;;;;;;;;;-1.10;41.80;;;;;;5069343;28;19926;-79
2022/03/03 02:58:29;;;;;;;;;;;-1.10;41.90;;;;;;5062911;28;19921;-84
2022/03/03 03:00:56;;;;;;;;;;;-1.10;42.00;;;;;;5056942;28;19916;-79
2022/03/03 03:03:22;;;;;;;;;;;-1.10;42.00;;;;;;5070269;28;19921;-78
2022/03/03 03:05:48;;;;;;;;;;;-1.20;41.50;;;;;;5052752;28;19928;-78
2022/03/03 03:08:15;;;;;;;;;;;-1.10;42.20;;;;;;5069584;28;19912;-79
2022/03/03 03:10:41;;;;;;;;;;;-1.10;42.10;;;;;;5053508;28;19923;-84
2022/03/03 03:13:08;;;;;;;;;;;-1.10;42.10;;;;;;5068621;28;20020;-78
2022/03/03 03:15:35;;;;;;;;;;;-1.10;42.20;;;;;;5067090;28;20270;-83
2022/03/03 03:18:20;;;;;;;;;;;-1.10;42.20;;;;;;5051796;28;19934;-79
2022/03/03 03:20:49;;;;;;;;;;;-1.20;42.20;;;;;;5068547;28;20334;-84
2022/03/03 03:23:16;;;;;;;;;;;-1.20;42.40;;;;;;5053022;28;19916;-83
2022/03/03 03:25:46;;;;;;;;;;;-1.20;42.30;;;;;;5051145;28;20031;-84
2022/03/03 03:28:13;;;;;;;;;;;-1.20;42.40;;;;;;5051008;28;19917;-79
2022/03/03 03:30:40;;;;;;;;;;;-1.20;42.40;;;;;;5050639;28;19962;-83
2022/03/03 03:33:06;;;;;;;;;;;-1.30;42.50;;;;;;5070235;28;19970;-78
2022/03/03 03:35:32;;;;;;;;;;;-1.30;42.60;;;;;;5052829;28;19981;-79
2022/03/03 03:37:59;;;;;;;;;;;-1.30;42.20;;;;;;5054001;28;19923;-83
2022/03/03 03:40:25;;;;;;;;;;;-1.30;42.60;;;;;;5036271;28;19963;-78
2022/03/03 03:42:51;;;;;;;;;;;-1.30;42.20;;;;;;5048580;28;19924;-78
2022/03/03 03:45:17;;;;;;;;;;;-1.30;42.90;;;;;;5049089;28;19974;-78
2022/03/03 03:47:43;;;;;;;;;;;-1.30;42.90;;;;;;5048176;28;19920;-83
2022/03/03 03:50:11;;;;;;;;;;;-1.40;42.80;;;;;;5052105;28;19920;-84
2022/03/03 03:52:38;;;;;;;;;;;-1.40;42.80;;;;;;5051965;28;19928;-79
2022/03/03 03:55:07;;;;;;;;;;;-1.40;42.80;;;;;;5068591;28;19920;-78
2022/03/03 03:57:33;;;;;;;;;;;-1.50;43.00;;;;;;5060634;28;19966;-79
2022/03/03 03:59:59;;;;;;;;;;;-1.50;43.30;;;;;;5053041;28;19920;-83
2022/03/03 04:02:25;;;;;;;;;;;-1.60;42.80;;;;;;5064161;28;19996;-79
2022/03/03 04:04:51;;;;;;;;;;;-1.60;43.30;;;;;;5052594;28;19928;-79
2022/03/03 04:07:18;;;;;;;;;;;-1.70;43.20;;;;;;5050174;28;19924;-84
2022/03/03 04:09:44;;;;;;;;;;;-1.60;43.40;;;;;;5051672;28;19951;-79
2022/03/03 04:12:10;;;;;;;;;;;-1.70;42.90;;;;;;5023227;28;19929;-83
2022/03/03 04:14:37;;;;;;;;;;;-1.70;43.30;;;;;;5048189;28;19939;-81
2022/03/03 04:17:03;;;;;;;;;;;-1.70;43.40;;;;;;5069811;28;19962;-83
2022/03/03 04:19:29;;;;;;;;;;;-1.70;43.00;;;;;;5049684;28;20117;-79
2022/03/03 04:21:55;;;;;;;;;;;-1.70;43.20;;;;;;5051272;28;20292;-79
2022/03/03 04:24:21;;;;;;;;;;;-1.70;43.70;;;;;;5052648;28;19925;-82
2022/03/03 04:26:47;;;;;;;;;;;-1.80;43.70;;;;;;5067410;28;19962;-79
2022/03/03 04:29:13;;;;;;;;;;;-1.80;43.20;;;;;;5055355;28;20003;-79
2022/03/03 04:31:39;;;;;;;;;;;-1.80;43.70;;;;;;5051791;28;19921;-83
2022/03/03 04:34:05;;;;;;;;;;;-1.90;43.70;;;;;;5050884;28;19956;-79
2022/03/03 04:36:31;;;;;;;;;;;-1.90;43.80;;;;;;5063911;28;19973;-83
2022/03/03 04:38:57;;;;;;;;;;;-1.90;43.80;;;;;;5059448;28;19916;-84
2022/03/03 04:41:23;;;;;;;;;;;-1.90;44.00;;;;;;5054635;28;19973;-79
2022/03/03 04:43:49;;;;;;;;;;;-2.00;44.80;;;;;;5061834;28;19920;-85
2022/03/03 04:46:15;;;;;;;;;;;-2.00;44.20;;;;;;5060657;28;20591;-84
2022/03/03 04:48:41;;;;;;;;;;;-2.10;44.30;;;;;;5077774;28;20332;-84
2022/03/03 04:51:07;;;;;;;;;;;-2.20;44.60;;;;;;5056247;28;19924;-82
2022/03/03 04:53:33;;;;;;;;;;;-2.30;45.00;;;;;;5054794;28;19917;-83
2022/03/03 04:55:59;;;;;;;;;;;-2.40;44.90;;;;;;5058366;28;19923;-82
2022/03/03 04:58:25;;;;;;;;;;;-2.30;44.80;;;;;;5068882;28;19928;-79
2022/03/03 05:00:51;;;;;;;;;;;-2.40;44.40;;;;;;5039337;28;19947;-83
2022/03/03 05:03:17;;;;;;;;;;;-2.40;44.00;;;;;;5036708;28;19917;-79
2022/03/03 05:05:43;;;;;;;;;;;-2.30;44.50;;;;;;5037576;28;19916;-81
2022/03/03 05:08:10;;;;;;;;;;;-2.30;44.50;;;;;;5071354;28;19968;-79
2022/03/03 05:10:36;;;;;;;;;;;-2.40;44.30;;;;;;5054739;28;20007;-84
2022/03/03 05:13:02;;;;;;;;;;;-2.40;44.60;;;;;;5055871;28;19947;-83
2022/03/03 05:15:28;;;;;;;;;;;-2.40;44.10;;;;;;5055120;28;20034;-83
2022/03/03 05:17:54;;;;;;;;;;;-2.40;44.10;;;;;;5069083;28;20365;-79
2022/03/03 05:20:21;;;;;;;;;;;-2.50;44.50;;;;;;5056972;28;20341;-79
2022/03/03 05:22:47;;;;;;;;;;;-2.50;44.10;;;;;;5055843;28;19982;-82
2022/03/03 05:25:13;;;;;;;;;;;-2.40;44.70;;;;;;5059983;28;19924;-79
2022/03/03 05:27:40;;;;;;;;;;;-2.50;44.70;;;;;;5054973;28;19921;-82
2022/03/03 05:30:07;;;;;;;;;;;-2.40;44.60;;;;;;5039375;28;19916;-82
2022/03/03 05:32:33;;;;;;;;;;;-2.40;44.60;;;;;;5060246;28;19912;-79
2022/03/03 05:34:59;;;;;;;;;;;-2.50;44.10;;;;;;5064239;28;19971;-82
2022/03/03 05:37:25;;;;;;;;;;;-2.40;44.70;;;;;;5055397;28;20327;-82
2022/03/03 05:39:52;;;;;;;;;;;-2.50;44.10;;;;;;5058643;28;19928;-82
2022/03/03 05:42:20;;;;;;;;;;;-2.40;44.60;;;;;;5053116;28;19920;-83
2022/03/03 05:44:47;;;;;;;;;;;-2.40;44.50;;;;;;5071178;28;19923;-82
2022/03/03 05:47:14;;;;;;;;;;;-2.40;44.50;;;;;;5067730;28;20370;-82
2022/03/03 05:49:41;;;;;;;;;;;-2.40;44.60;;;;;;5052742;28;19961;-79
2022/03/03 05:52:09;;;;;;;;;;;-2.50;44.50;;;;;;5037165;28;19959;-79
2022/03/03 05:54:36;;;;;;;;;;;-2.50;44.90;;;;;;5085645;28;20011;-81
2022/03/03 05:57:03;;;;;;;;;;;-2.50;44.90;;;;;;5067239;28;19920;-81
2022/03/03 05:59:32;;;;;;;;;;;-2.50;44.80;;;;;;5088362;28;19959;-79
2022/03/03 06:01:59;;;;;;;;;;;-2.40;44.70;;;;;;5069953;28;20377;-79
2022/03/03 06:04:44;;;;;;;;;;;-2.50;44.70;;;;;;5039743;28;19920;-82
2022/03/03 06:07:10;;;;;;;;;;;-2.50;44.70;;;;;;5070300;28;19920;-79
2022/03/03 06:09:37;;;;;;;;;;;-2.40;44.70;;;;;;5053714;28;19920;-81
2022/03/03 06:12:06;;;;;;;;;;;-2.50;44.70;;;;;;5051715;28;20380;-81
2022/03/03 06:14:52;;;;;;;;;;;-2.40;44.50;;;;;;5054079;28;19913;-80
2022/03/03 06:17:21;;;;;;;;;;;-2.40;44.50;;;;;;5053934;28;19920;-81
2022/03/03 06:19:49;;;;;;;;;;;-2.30;44.60;;;;;;5070651;28;19921;-82
2022/03/03 06:22:15;;;;;;;;;;;-2.30;44.50;;;;;;5053318;28;20305;-79
2022/03/03 06:24:42;;;;;;;;;;;-2.30;44.10;;;;;;5038834;28;19928;-81
2022/03/03 06:27:08;;;;;;;;;;;-2.20;44.50;;;;;;5067913;28;19920;-82
2022/03/03 06:29:35;;;;;;;;;;;-2.10;44.50;;;;;;5056229;28;19919;-80
2022/03/03 06:32:02;;;;;;;;;;;-2.10;44.50;;;;;;5054074;28;19924;-82
2022/03/03 06:34:28;;;;;;;;;;;-2.10;44.60;;;;;;5071292;28;19959;-81
2022/03/03 06:36:55;;;;;;;;;;;-2.00;44.10;;;;;;5050619;28;20336;-80
2022/03/03 06:39:21;;;;;;;;;;;-1.90;44.60;;;;;;5079860;28;19943;-80
2022/03/03 06:41:47;;;;;;;;;;;-1.90;44.70;;;;;;5045721;28;19912;-80
2022/03/03 06:44:13;;;;;;;;;;;-1.80;44.60;;;;;;5060395;28;20335;-80
2022/03/03 06:46:40;;;;;;;;;;;-1.70;44.70;;;;;;5053257;28;19926;-82
2022/03/03 06:49:06;;;;;;;;;;;-1.60;44.50;;;;;;5067179;28;19916;-82
2022/03/03 06:51:54;;;;;;;;;;;-1.50;44.60;;;;;;5051226;28;19920;-82
2022/03/03 06:54:21;;;;;;;;;;;-1.40;44.50;;;;;;5042392;28;20002;-82
2022/03/03 06:56:49;;;;;;;;;;;-1.40;44.50;;;;;;5066600;28;19923;-83
2022/03/03 06:59:17;;;;;;;;;;;-1.30;44.80;;;;;;5067976;28;19929;-82
2022/03/03 07:01:43;;;;;;;;;;;-1.20;44.80;;;;;;5053503;28;19951;-79
2022/03/03 07:04:13;;;;;;;;;;;-1.20;44.80;;;;;;5051490;28;19923;-80
2022/03/03 07:06:39;;;;;;;;;;;-1.10;44.90;;;;;;5067414;28;20443;-82
2022/03/03 07:09:06;;;;;;;;;;;-1.10;45.00;;;;;;5053197;28;19916;-81
2022/03/03 07:11:32;;;;;;;;;;;-1.00;45.10;;;;;;5053219;28;20290;-79
2022/03/03 07:13:58;;;;;;;;;;;-1.00;45.20;;;;;;5070229;28;20412;-82
2022/03/03 07:17:02;;;;;;;;;;;-0.90;45.20;;;;;;5053874;28;20496;-82
2022/03/03 07:20:06;;;;;;;;;;;-0.80;45.20;;;;;;5053304;28;19935;-83
2022/03/03 07:23:10;;;;;;;;;;;-0.60;45.20;;;;;;5070892;28;19924;-79
2022/03/03 07:25:46;;;;;;;;;;;-0.50;45.10;;;;;;5070862;28;19921;-82
2022/03/03 07:28:12;;;;;;;;;;;-0.40;45.00;;;;;;5060193;28;19921;-83
2022/03/03 07:30:41;;;;;;;;;;;-0.30;45.00;;;;;;5061376;28;19942;-79
2022/03/03 07:33:09;;;;;;;;;;;-0.10;45.00;;;;;;5053624;28;20333;-81
2022/03/03 07:35:35;;;;;;;;;;;-0.10;44.90;;;;;;5069823;28;20327;-79
2022/03/03 07:38:21;;;;;;;;;;;0.10;45.00;;;;;;5070337;28;19921;-79
2022/03/03 07:40:49;;;;;;;;;;;0.20;44.90;;;;;;5061447;28;19921;-79
2022/03/03 07:43:16;;;;;;;;;;;0.30;44.80;;;;;;5036161;28;19921;-84
2022/03/03 07:45:43;;;;;;;;;;;0.40;44.80;;;;;;5036592;28;19928;-79
2022/03/03 07:48:29;;;;;;;;;;;0.50;44.90;;;;;;5052583;28;19960;-84
2022/03/03 07:50:57;;;;;;;;;;;0.70;44.80;;;;;;5041784;28;20007;-79
2022/03/03 07:53:23;;;;;;;;;;;0.70;44.60;;;;;;5055217;28;19920;-81
2022/03/03 07:55:53;;;;;;;;;;;0.90;44.70;;;;;;5068092;28;19920;-85
2022/03/03 07:58:22;;;;;;;;;;;1.00;44.30;;;;;;5049423;28;20400;-79
2022/03/03 08:00:51;;;;;;;;;;;1.10;44.40;;;;;;5036179;28;20304;-86
2022/03/03 08:03:19;;;;;;;;;;;1.30;44.30;;;;;;5052113;28;19967;-79
2022/03/03 08:05:47;;;;;;;;;;;1.40;44.00;;;;;;5035986;28;19923;-79
2022/03/03 08:08:15;;;;;;;;;;;1.60;43.80;;;;;;5053331;28;19920;-80
2022/03/03 08:11:02;;;;;;;;;;;1.80;43.80;;;;;;5046201;28;19928;-80
2022/03/03 08:13:29;;;;;;;;;;;2.00;43.60;;;;;;5056968;28;19932;-80
2022/03/03 08:15:55;;;;;;;;;;;2.10;43.70;;;;;;5040234;28;19920;-84
2022/03/03 08:18:25;;;;;;;;;;;3.30;43.00;;;;;;5058405;28;19962;-85
2022/03/03 08:20:51;;;;;;;;;;;5.10;40.50;;;;;;5073845;28;19916;-84
2022/03/03 08:23:18;;;;;;;;;;;6.90;39.20;;;;;;5075644;28;20014;-85
2022/03/03 08:25:45;;;;;;;;;;;8.30;38.10;;;;;;5074779;28;20006;-79
2022/03/03 08:28:11;;;;;;;;;;;9.50;37.70;;;;;;5075643;28;19974;-80
2022/03/03 08:30:37;;;;;;;;;;;10.60;37.50;;;;;;5058876;28;19924;-86
2022/03/03 08:33:21;;;;;;;;;;;11.70;37.00;;;;;;5059393;28;20369;-87
2022/03/03 08:36:06;;;;;;;;;;;12.70;36.30;;;;;;5076041;28;19927;-87
2022/03/03 08:38:37;;;;;;;;;;;13.60;35.50;;;;;;5057326;28;19956;-80
2022/03/03 08:41:04;;;;;;;;;;;14.30;34.50;;;;;;5057616;28;20431;-80
2022/03/03 08:43:32;;;;;;;;;;;15.20;33.50;;;;;;5075273;28;20300;-80
2022/03/03 08:46:02;;;;;;;;;;;16.00;32.60;;;;;;5060258;28;19920;-86
2022/03/03 08:48:31;;;;;;;;;;;17.00;31.60;;;;;;5061469;28;19924;-81
2022/03/03 08:50:59;;;;;;;;;;;17.60;30.50;;;;;;5058137;28;19913;-85
2022/03/03 08:53:25;;;;;;;;;;;18.40;29.60;;;;;;5059994;28;20016;-81
2022/03/03 08:58:38;;;;;;;;;;;19.20;28.40;;;;;;5057273;28;19921;-81
2022/03/03 09:01:04;;;;;;;;;;;20.20;27.40;;;;;;5058386;28;19921;-81
2022/03/03 09:03:30;;;;;;;;;;;20.70;26.80;;;;;;5070564;28;19978;-81
2022/03/03 09:05:56;;;;;;;;;;;21.30;26.20;;;;;;5071466;28;19912;-83
2022/03/03 09:08:23;;;;;;;;;;;21.90;24.90;;;;;;5059763;28;20293;-84
2022/03/03 09:10:49;;;;;;;;;;;22.70;24.60;;;;;;5074813;28;19924;-84
2022/03/03 09:13:16;;;;;;;;;;;23.10;23.70;;;;;;5074404;28;19964;-83
2022/03/03 09:16:02;;;;;;;;;;;23.80;22.80;;;;;;5073520;28;19931;-80
2022/03/03 09:18:28;;;;;;;;;;;24.50;22.70;;;;;;5067129;28;19931;-82
2022/03/03 09:20:54;;;;;;;;;;;25.00;22.00;;;;;;5063521;28;19912;-79
2022/03/03 09:23:20;;;;;;;;;;;25.40;20.90;;;;;;5068268;28;19966;-79
2022/03/03 09:25:47;;;;;;;;;;;26.10;20.60;;;;;;5058469;28;20033;-82
2022/03/03 09:28:13;;;;;;;;;;;26.50;19.50;;;;;;5067566;28;19927;-79
2022/03/03 09:30:39;;;;;;;;;;;27.20;19.80;;;;;;5055158;28;20297;-80
2022/03/03 09:33:05;;;;;;;;;;;27.70;18.50;;;;;;5053950;28;19913;-81
2022/03/03 09:35:32;;;;;;;;;;;27.80;17.30;;;;;;5038347;28;19912;-81
2022/03/03 09:37:59;;;;;;;;;;;28.60;17.50;;;;;;5054518;28;19933;-80
2022/03/03 09:40:25;;;;;;;;;;;29.30;15.30;;;;;;5036224;28;19955;-81
2022/03/03 09:43:09;;;;;;;;;;;29.50;15.20;;;;;;5054364;28;20031;-80
2022/03/03 09:45:37;;;;;;;;;;;29.70;14.90;;;;;;5052265;28;19921;-81
2022/03/03 09:48:06;;;;;;;;;;;30.30;14.90;;;;;;5053912;28;20010;-81
2022/03/03 09:50:35;;;;;;;;;;;30.80;14.10;;;;;;5084016;28;20025;-80
2022/03/03 09:53:06;;;;;;;;;;;31.30;13.90;;;;;;5070262;28;19951;-81
2022/03/03 09:55:32;;;;;;;;;;;31.80;13.70;;;;;;5052106;28;20434;-80
2022/03/03 09:57:58;;;;;;;;;;;32.00;12.60;;;;;;5053490;28;19920;-81
2022/03/03 10:00:25;;;;;;;;;;;32.30;12.50;;;;;;5054261;28;19983;-79
2022/03/03 10:03:12;;;;;;;;;;;31.60;12.20;;;;;;5050680;28;19917;-79
2022/03/03 10:06:00;;;;;;;;;;;31.30;12.40;;;;;;5070482;28;20115;-79
2022/03/03 10:08:27;;;;;;;;;;;31.60;12.30;;;;;;5053642;28;19920;-79
2022/03/03 10:11:13;;;;;;;;;;;30.30;12.80;;;;;;5051708;28;20323;-79
2022/03/03 10:13:50;;;;;;;;;;;29.70;12.30;;;;;;5068817;28;19921;-79
2022/03/03 10:16:35;;;;;;;;;;;28.90;11.90;;;;;;5052348;28;19938;-79
2022/03/03 10:19:04;;;;;;;;;;;27.80;12.30;;;;;;5051898;28;19921;-79
2022/03/03 10:21:50;;;;;;;;;;;26.50;12.10;;;;;;5061289;28;20340;-79
2022/03/03 10:24:25;;;;;;;;;;;24.70;12.70;;;;;;5068007;28;19921;-79
2022/03/03 10:27:09;;;;;;;;;;;24.00;12.90;;;;;;5068926;28;20419;-79
2022/03/03 10:29:36;;;;;;;;;;;23.60;12.10;;;;;;5055934;28;19916;-80
2022/03/03 10:32:05;;;;;;;;;;;23.30;11.80;;;;;;5068060;28;19920;-79
2022/03/03 10:34:33;;;;;;;;;;;23.00;12.00;;;;;;5052180;28;20293;-80
2022/03/03 10:37:20;;;;;;;;;;;22.20;12.90;;;;;;5067789;28;19924;-80
2022/03/03 10:39:49;;;;;;;;;;;22.10;13.00;;;;;;5053344;28;19974;-79
2022/03/03 10:42:33;;;;;;;;;;;21.90;12.70;;;;;;5034076;28;20011;-79
2022/03/03 10:45:19;;;;;;;;;;;22.10;12.90;;;;;;5035862;28;19920;-79
2022/03/03 10:47:46;;;;;;;;;;;22.30;12.40;;;;;;5057226;28;19923;-80
2022/03/03 10:50:12;;;;;;;;;;;23.20;12.20;;;;;;5067454;28;19966;-79
2022/03/03 10:52:40;;;;;;;;;;;24.50;11.90;;;;;;5035003;28;19920;-80
2022/03/03 10:55:12;;;;;;;;;;;26.50;10.00;;;;;;5034638;28;19928;-80
2022/03/03 10:57:58;;;;;;;;;;;27.90;9.10;;;;;;5037259;28;20010;-80
2022/03/03 11:00:43;;;;;;;;;;;27.70;9.10;;;;;;5051689;28;19924;-79
2022/03/03 11:03:10;;;;;;;;;;;26.40;9.50;;;;;;5053365;28;19952;-80
2022/03/03 11:05:36;;;;;;;;;;;24.80;10.70;;;;;;5053919;28;19916;-79
2022/03/03 11:08:02;;;;;;;;;;;24.00;11.20;;;;;;5068121;28;20120;-79
2022/03/03 11:10:30;;;;;;;;;;;23.70;11.30;;;;;;5052938;28;19924;-80
2022/03/03 11:12:56;;;;;;;;;;;23.70;11.50;;;;;;5051618;28;20412;-79
2022/03/03 11:15:24;;;;;;;;;;;23.70;11.40;;;;;;5051475;28;20003;-80
2022/03/03 11:17:51;;;;;;;;;;;24.10;11.10;;;;;;5051558;28;20397;-79
2022/03/03 11:20:20;;;;;;;;;;;25.00;10.40;;;;;;5054187;28;19913;-79
2022/03/03 11:22:47;;;;;;;;;;;26.70;9.50;;;;;;5068869;28;20023;-80
2022/03/03 11:25:18;;;;;;;;;;;27.00;9.60;;;;;;5069137;28;19928;-80
2022/03/03 11:27:47;;;;;;;;;;;26.70;9.20;;;;;;5054111;28;19978;-79
2022/03/03 11:30:32;;;;;;;;;;;26.80;9.00;;;;;;5046301;28;19920;-80
2022/03/03 11:36:07;;;;;;;;;;;25.90;9.40;;;;;;5052089;28;19932;-79
2022/03/03 11:39:10;;;;;;;;;;;25.70;9.40;;;;;;5036049;28;19917;-80
2022/03/03 11:41:55;;;;;;;;;;;25.30;10.10;;;;;;5054027;28;19920;-79
2022/03/03 11:44:30;;;;;;;;;;;25.50;10.00;;;;;;5050390;28;19924;-79
2022/03/03 11:46:57;;;;;;;;;;;26.20;9.80;;;;;;5037617;28;19921;-81
2022/03/03 11:49:25;;;;;;;;;;;25.70;9.60;;;;;;5065708;28;19970;-79
2022/03/03 11:51:55;;;;;;;;;;;26.40;9.50;;;;;;5065240;28;19932;-79
2022/03/03 11:54:41;;;;;;;;;;;27.20;9.20;;;;;;5051817;28;20385;-80
2022/03/03 11:57:07;;;;;;;;;;;27.50;9.00;;;;;;5050320;28;19968;-81
2022/03/03 11:59:33;;;;;;;;;;;27.90;9.20;;;;;;5053050;28;20536;-81
2022/03/03 12:02:00;;;;;;;;;;;28.90;8.70;;;;;;5053677;28;20403;-81
2022/03/03 12:04:27;;;;;;;;;;;30.50;8.20;;;;;;5052839;28;20250;-80
2022/03/03 12:06:54;;;;;;;;;;;31.80;7.70;;;;;;5050429;28;19924;-79
2022/03/03 12:09:41;;;;;;;;;;;32.60;7.50;;;;;;5051287;28;19917;-79
2022/03/03 12:12:45;;;;;;;;;;;34.10;6.30;;;;;;5051872;28;20220;-79
2022/03/03 12:15:11;;;;;;;;;;;34.60;6.60;;;;;;5055799;28;19935;-79
2022/03/03 12:17:56;;;;;;;;;;;35.30;7.40;;;;;;5066924;28;19916;-79
2022/03/03 12:20:45;;;;;;;;;;;36.20;6.60;;;;;;5065118;28;19931;-79
2022/03/03 12:23:50;;;;;;;;;;;37.40;6.30;;;;;;5061820;28;19982;-80
2022/03/03 12:26:16;;;;;;;;;;;38.80;5.90;;;;;;5061872;28;19966;-79
2022/03/03 12:29:01;;;;;;;;;;;38.70;5.10;;;;;;5057616;28;19956;-79
2022/03/03 12:31:29;;;;;;;;;;;39.00;5.90;;;;;;5047447;28;19925;-80
2022/03/03 12:34:15;;;;;;;;;;;38.50;5.60;;;;;;5051069;28;19921;-79
2022/03/03 12:36:44;;;;;;;;;;;39.70;4.60;;;;;;5042546;28;20354;-80
2022/03/03 12:39:10;;;;;;;;;;;40.50;5.00;;;;;;5052013;28;19928;-78
2022/03/03 12:41:38;;;;;;;;;;;40.60;4.80;;;;;;5052198;28;20385;-80
2022/03/03 12:44:23;;;;;;;;;;;39.50;5.60;;;;;;5049487;28;19974;-79
2022/03/03 12:46:49;;;;;;;;;;;39.40;5.40;;;;;;5062161;28;20444;-79
2022/03/03 12:49:15;;;;;;;;;;;39.80;5.20;;;;;;5058398;28;19920;-79
2022/03/03 12:51:43;;;;;;;;;;;40.70;5.40;;;;;;5050489;28;19921;-79
2022/03/03 12:54:09;;;;;;;;;;;41.40;5.10;;;;;;5049471;28;19955;-78
2022/03/03 12:56:36;;;;;;;;;;;42.60;4.80;;;;;;5051873;28;19943;-79
2022/03/03 12:59:07;;;;;;;;;;;43.40;4.40;;;;;;5052755;28;20003;-79
2022/03/03 13:01:35;;;;;;;;;;;42.60;3.50;;;;;;5037901;28;19966;-79
2022/03/03 13:04:03;;;;;;;;;;;43.20;4.40;;;;;;5052898;28;19921;-80
2022/03/03 13:06:30;;;;;;;;;;;43.60;4.30;;;;;;5054955;28;19971;-80
2022/03/03 13:08:58;;;;;;;;;;;43.50;3.30;;;;;;5054144;28;19916;-78
2022/03/03 13:11:24;;;;;;;;;;;43.40;4.00;;;;;;5054728;28;19931;-78
2022/03/03 13:13:52;;;;;;;;;;;44.00;4.40;;;;;;5038079;28;20405;-79
2022/03/03 13:16:39;;;;;;;;;;;44.50;4.20;;;;;;5054175;28;19927;-79
2022/03/03 13:19:06;;;;;;;;;;;44.20;3.70;;;;;;5071736;28;19920;-78
2022/03/03 13:21:33;;;;;;;;;;;44.20;4.20;;;;;;5060323;28;19967;-79
2022/03/03 13:24:23;;;;;;;;;;;44.60;3.90;;;;;;5036913;28;19916;-79
2022/03/03 13:26:49;;;;;;;;;;;44.40;3.70;;;;;;5073287;28;19917;-79
2022/03/03 13:29:36;;;;;;;;;;;44.60;3.80;;;;;;5072212;28;19928;-79
2022/03/03 13:32:11;;;;;;;;;;;45.00;4.10;;;;;;5037544;28;19920;-79
2022/03/03 13:34:38;;;;;;;;;;;45.20;4.00;;;;;;5053587;28;20440;-79
2022/03/03 13:37:14;;;;;;;;;;;45.10;4.00;;;;;;5053399;28;20247;-79
2022/03/03 13:39:40;;;;;;;;;;;45.50;3.60;;;;;;5053856;28;19924;-79
2022/03/03 13:42:26;;;;;;;;;;;45.10;3.70;;;;;;5052875;28;19936;-79
2022/03/03 13:44:54;;;;;;;;;;;45.30;4.00;;;;;;5038199;28;19923;-79
2022/03/03 13:47:26;;;;;;;;;;;45.60;3.80;;;;;;5058358;28;19912;-79
2022/03/03 13:49:52;;;;;;;;;;;45.20;3.30;;;;;;5036364;28;20348;-79
2022/03/03 13:52:37;;;;;;;;;;;44.90;3.30;;;;;;5051727;28;19924;-79
2022/03/03 13:55:22;;;;;;;;;;;44.70;3.10;;;;;;5054558;28;19947;-78
2022/03/03 13:57:50;;;;;;;;;;;44.60;3.60;;;;;;5053354;28;20365;-79
2022/03/03 14:00:35;;;;;;;;;;;44.80;3.70;;;;;;5036057;28;20412;-79
2022/03/03 14:03:20;;;;;;;;;;;45.30;4.00;;;;;;5057997;28;20012;-79
2022/03/03 14:06:06;;;;;;;;;;;45.80;3.60;;;;;;5064105;28;19913;-79
2022/03/03 14:08:50;;;;;;;;;;;45.50;3.60;;;;;;5036659;28;20336;-79
2022/03/03 14:11:35;;;;;;;;;;;44.90;3.70;;;;;;5040448;28;19921;-79
2022/03/03 14:14:01;;;;;;;;;;;44.70;4.00;;;;;;5057676;28;19921;-79
2022/03/03 14:16:31;;;;;;;;;;;44.70;4.10;;;;;;5053932;28;19921;-80
2022/03/03 14:18:59;;;;;;;;;;;44.90;3.90;;;;;;5036909;28;19932;-79
2022/03/03 14:21:25;;;;;;;;;;;44.70;4.00;;;;;;5052543;28;19943;-79
2022/03/03 14:23:52;;;;;;;;;;;44.40;4.00;;;;;;5034926;28;19967;-79
2022/03/03 14:26:20;;;;;;;;;;;44.30;4.20;;;;;;5052713;28;19917;-79
2022/03/03 14:28:46;;;;;;;;;;;43.80;3.60;;;;;;5051377;28;20377;-80
2022/03/03 14:31:15;;;;;;;;;;;43.80;3.60;;;;;;5052407;28;20015;-79
2022/03/03 14:33:42;;;;;;;;;;;43.50;4.10;;;;;;5036498;28;20154;-79
2022/03/03 14:36:08;;;;;;;;;;;43.70;3.70;;;;;;5052129;28;20003;-79
2022/03/03 14:38:35;;;;;;;;;;;43.30;3.60;;;;;;5054219;28;20270;-79
2022/03/03 14:41:01;;;;;;;;;;;43.20;4.20;;;;;;5035409;28;19921;-80
2022/03/03 14:43:29;;;;;;;;;;;43.00;4.30;;;;;;5057555;28;19928;-79